Time;durP1;ratioP1;P1;durP2;ratioP2;P2;SDS_P1;SDS_P2;PMS_P1;PMS_P2;Temp;Humidity;BMP_temperature;BMP_pressure;BME280_temperature;BME280_humidity;BME280_pressure;Samples;Min_cycle;Max_cycle;Signal;HPM_P1;HPM_P2
2024/04/07 00:00:23;;;;;;;30.90;17.40;;;;;;;14.15;66.74;99360.28;239150;179;137416;-58
2024/04/07 00:05:53;;;;;;;28.30;15.90;;;;;;;14.06;67.04;99359.90;239087;180;154076;-58
2024/04/07 00:11:03;;;;;;;27.00;15.40;;;;;;;13.98;67.05;99350.96;239100;180;137987;-59
2024/04/07 00:16:06;;;;;;;28.90;16.80;;;;;;;13.96;67.19;99358.39;239147;180;138798;-58
2024/04/07 00:21:09;;;;;;;29.00;17.70;;;;;;;13.95;67.15;99362.19;239081;180;152927;-57
2024/04/07 00:26:12;;;;;;;27.90;16.70;;;;;;;13.93;67.13;99367.17;239080;173;137670;-59
2024/04/07 00:31:15;;;;;;;25.40;16.40;;;;;;;13.89;67.16;99364.83;239141;180;138740;-59
2024/04/07 00:36:18;;;;;;;27.60;16.90;;;;;;;13.86;67.25;99362.52;239145;179;155088;-60
2024/04/07 00:41:21;;;;;;;30.30;17.20;;;;;;;13.82;67.41;99357.30;239065;179;137247;-59
2024/04/07 00:46:25;;;;;;;29.20;17.90;;;;;;;13.77;67.46;99359.27;239163;180;140854;-58
2024/04/07 00:51:28;;;;;;;28.30;17.20;;;;;;;13.70;67.61;99361.13;239136;177;153788;-59
2024/04/07 00:56:33;;;;;;;26.30;17.10;;;;;;;13.63;67.80;99363.73;239050;179;138144;-58
2024/04/07 01:01:35;;;;;;;26.90;17.20;;;;;;;13.57;67.97;99369.52;239113;180;137255;-58
2024/04/07 01:06:38;;;;;;;29.40;16.60;;;;;;;13.49;68.18;99365.95;239087;180;153105;-59
2024/04/07 01:11:42;;;;;;;25.20;16.90;;;;;;;13.49;68.44;99359.23;239115;180;138323;-60
2024/04/07 01:16:44;;;;;;;35.70;17.20;;;;;;;13.54;68.43;99371.53;239068;180;138426;-60
2024/04/07 01:21:47;;;;;;;29.70;17.00;;;;;;;13.56;68.15;99368.74;239083;180;153117;-58
2024/04/07 01:26:50;;;;;;;29.50;17.00;;;;;;;13.56;67.91;99369.09;238996;178;138653;-60
2024/04/07 01:31:53;;;;;;;29.90;17.60;;;;;;;13.51;67.82;99365.66;239134;180;138075;-59
2024/04/07 01:36:56;;;;;;;29.30;17.20;;;;;;;13.43;67.93;99370.50;239134;180;153149;-59
2024/04/07 01:42:00;;;;;;;30.40;17.50;;;;;;;13.35;67.98;99368.01;239111;176;138494;-56
2024/04/07 01:47:03;;;;;;;27.70;17.40;;;;;;;13.31;68.18;99361.34;239203;180;138234;-57
2024/04/07 01:52:06;;;;;;;26.90;17.20;;;;;;;13.22;68.31;99365.48;239135;180;153786;-55
2024/04/07 01:57:09;;;;;;;25.80;16.20;;;;;;;13.12;68.41;99372.25;238689;180;139036;-57
2024/04/07 02:02:12;;;;;;;25.90;16.20;;;;;;;13.04;68.68;99368.10;238390;180;137443;-57
2024/04/07 02:07:18;;;;;;;24.10;15.00;;;;;;;13.00;68.98;99371.73;239070;180;153006;-56
2024/04/07 02:12:21;;;;;;;22.60;14.20;;;;;;;12.98;69.00;99372.95;239063;180;138761;-57
2024/04/07 02:17:24;;;;;;;25.70;15.30;;;;;;;13.01;69.15;99372.23;239137;180;138494;-58
2024/04/07 02:22:27;;;;;;;26.40;15.80;;;;;;;12.99;69.11;99378.75;239121;180;153003;-58
2024/04/07 02:27:30;;;;;;;25.60;15.30;;;;;;;13.00;69.13;99383.50;239111;180;137173;-57
2024/04/07 02:32:33;;;;;;;26.40;15.10;;;;;;;12.96;69.24;99382.19;239110;180;137749;-56
2024/04/07 02:37:36;;;;;;;28.30;14.70;;;;;;;12.94;69.21;99378.92;239068;180;153020;-56
2024/04/07 02:42:39;;;;;;;28.00;14.80;;;;;;;12.88;69.28;99376.52;239083;180;137949;-58
2024/04/07 02:53:05;;;;;;;27.00;14.40;;;;;;;12.79;69.15;99371.70;239102;180;154886;-59
2024/04/07 02:58:08;;;;;;;23.80;14.90;;;;;;;12.67;69.14;99377.83;239097;180;141106;-58
2024/04/07 03:03:12;;;;;;;23.00;14.90;;;;;;;12.59;69.29;99381.26;239151;180;137374;-58
2024/04/07 03:08:15;;;;;;;25.50;14.80;;;;;;;12.53;69.40;99375.23;238945;180;154565;-59
2024/04/07 03:13:17;;;;;;;23.40;14.50;;;;;;;12.55;69.48;99378.80;239054;180;138793;-59
2024/04/07 03:18:21;;;;;;;22.90;15.20;;;;;;;12.53;69.45;99375.39;239138;179;137352;-58
2024/04/07 03:23:24;;;;;;;21.60;14.80;;;;;;;12.52;69.51;99373.69;239103;180;152908;-58
2024/04/07 03:28:27;;;;;;;27.80;15.60;;;;;;;12.47;69.63;99377.01;239089;176;138653;-58
2024/04/07 03:33:31;;;;;;;23.90;14.20;;;;;;;12.43;69.87;99374.60;239189;180;137951;-58
2024/04/07 03:38:34;;;;;;;21.60;13.70;;;;;;;12.38;69.91;99382.56;239175;177;153145;-58
2024/04/07 03:43:37;;;;;;;21.90;13.90;;;;;;;12.34;70.08;99384.44;239073;176;139375;-58
2024/04/07 03:48:40;;;;;;;21.40;13.60;;;;;;;12.29;70.31;99389.00;239173;180;137373;-59
2024/04/07 03:53:43;;;;;;;27.00;13.40;;;;;;;12.26;70.57;99398.66;239076;180;153037;-57
2024/04/07 03:58:46;;;;;;;21.30;12.50;;;;;;;12.28;70.69;99393.48;239034;180;138130;-57
2024/04/07 04:03:49;;;;;;;21.20;13.00;;;;;;;12.33;70.74;99388.23;239124;180;138947;-58
2024/04/07 04:08:52;;;;;;;200.60;152.60;;;;;;;12.43;70.92;99378.02;239105;180;153229;-59
2024/04/07 04:13:55;;;;;;;28.40;16.40;;;;;;;12.52;70.54;99380.58;239079;180;138728;-59
2024/04/07 04:18:58;;;;;;;87.90;69.40;;;;;;;12.49;69.88;99387.21;239184;180;137460;-60
2024/04/07 04:24:01;;;;;;;36.90;29.60;;;;;;;12.47;69.86;99399.62;239122;180;155345;-58
2024/04/07 04:29:04;;;;;;;16.90;12.50;;;;;;;12.47;69.70;99410.50;239076;180;139628;-59
2024/04/07 04:34:07;;;;;;;23.50;13.50;;;;;;;12.44;69.74;99409.93;239149;180;138252;-59
2024/04/07 04:39:10;;;;;;;253.20;209.30;;;;;;;12.44;69.94;99404.83;239088;180;154370;-59
2024/04/07 04:44:17;;;;;;;73.30;54.50;;;;;;;12.48;70.24;99402.05;239107;180;137809;-59
2024/04/07 04:49:20;;;;;;;35.90;21.50;;;;;;;12.60;70.15;99394.16;239095;180;139095;-59
2024/04/07 04:54:23;;;;;;;41.70;26.50;;;;;;;12.70;70.11;99403.29;239071;180;153605;-59
2024/04/07 04:59:26;;;;;;;23.40;12.90;;;;;;;12.82;70.20;99403.23;239039;180;137271;-59
2024/04/07 05:04:29;;;;;;;55.60;40.90;;;;;;;12.95;70.20;99405.39;239108;180;138019;-60
2024/04/07 05:09:32;;;;;;;40.70;29.80;;;;;;;13.05;70.22;99405.29;239100;180;153032;-59
2024/04/07 05:14:35;;;;;;;22.40;13.40;;;;;;;13.14;70.39;99402.56;239110;180;138183;-58
2024/04/07 05:19:37;;;;;;;20.60;13.90;;;;;;;13.19;70.18;99409.70;239100;180;140893;-57
2024/04/07 05:24:40;;;;;;;21.20;13.90;;;;;;;13.26;70.48;99407.11;239077;180;153038;-60
2024/04/07 05:29:47;;;;;;;21.90;13.60;;;;;;;13.35;70.73;99407.75;239066;180;137880;-60
2024/04/07 05:34:50;;;;;;;20.70;14.30;;;;;;;13.46;70.72;99404.88;239144;180;138385;-59
2024/04/07 05:39:53;;;;;;;20.20;15.40;;;;;;;13.62;70.59;99400.73;239114;180;153274;-59
2024/04/07 05:44:56;;;;;;;22.00;15.70;;;;;;;13.75;70.37;99402.02;239075;180;138505;-58
2024/04/07 05:49:59;;;;;;;22.30;15.00;;;;;;;13.86;70.03;99398.36;239082;177;141058;-57
2024/04/07 05:55:03;;;;;;;21.50;14.70;;;;;;;13.93;69.79;99399.27;239069;180;152908;-59
2024/04/07 06:00:10;;;;;;;21.30;14.90;;;;;;;13.98;69.84;99405.73;239062;180;137799;-59
2024/04/07 06:05:16;;;;;;;22.80;14.60;;;;;;;14.02;69.98;99417.63;239100;179;138442;-60
2024/04/07 06:10:19;;;;;;;24.40;14.70;;;;;;;14.07;70.43;99425.29;239103;180;153119;-58
2024/04/07 06:15:22;;;;;;;20.70;12.80;;;;;;;14.16;70.69;99424.64;239095;179;140786;-58
2024/04/07 06:20:25;;;;;;;20.50;12.60;;;;;;;14.32;70.79;99431.17;238758;176;139155;-60
2024/04/07 06:25:28;;;;;;;22.70;13.50;;;;;;;14.55;71.09;99430.10;239040;180;153057;-61
2024/04/07 06:30:31;;;;;;;78.60;66.80;;;;;;;14.78;70.94;99433.98;239082;180;138098;-63
2024/04/07 06:35:34;;;;;;;63.20;48.50;;;;;;;14.97;70.78;99438.60;239071;180;138264;-64
2024/04/07 06:40:37;;;;;;;17.70;13.20;;;;;;;15.16;70.59;99439.94;239030;180;154018;-65
2024/04/07 06:45:40;;;;;;;23.10;13.60;;;;;;;15.33;70.42;99435.57;239116;180;138247;-65
2024/04/07 06:50:43;;;;;;;17.10;12.40;;;;;;;15.51;70.07;99429.56;239096;180;137528;-65
2024/04/07 06:55:47;;;;;;;19.10;15.10;;;;;;;15.66;69.77;99432.41;239114;180;153734;-65
2024/04/07 07:00:50;;;;;;;19.50;14.50;;;;;;;15.82;69.38;99438.88;239083;176;138151;-64
2024/04/07 07:05:53;;;;;;;23.10;15.60;;;;;;;16.01;69.17;99436.45;239045;177;140680;-64
2024/04/07 07:11:00;;;;;;;26.00;19.50;;;;;;;16.25;68.67;99429.55;239033;179;155150;-65
2024/04/07 07:16:04;;;;;;;47.60;36.80;;;;;;;16.50;68.27;99426.70;239093;176;137828;-58
2024/04/07 07:21:07;;;;;;;30.10;23.10;;;;;;;17.03;67.37;99433.17;239103;180;139351;-58
2024/04/07 07:26:10;;;;;;;148.20;121.30;;;;;;;17.54;65.64;99440.75;239049;180;153118;-61
2024/04/07 07:31:13;;;;;;;35.50;26.20;;;;;;;17.99;64.75;99444.84;239085;180;138105;-62
2024/04/07 07:36:16;;;;;;;64.20;46.00;;;;;;;18.17;63.91;99435.34;239129;180;137962;-63
2024/04/07 07:41:19;;;;;;;23.40;14.10;;;;;;;18.08;63.84;99435.79;239121;180;152858;-63
2024/04/07 07:46:22;;;;;;;16.00;10.50;;;;;;;18.05;63.78;99439.42;239095;180;138465;-62
2024/04/07 07:51:25;;;;;;;16.10;10.00;;;;;;;18.12;63.47;99437.62;239098;180;138658;-64
2024/04/07 07:56:28;;;;;;;16.80;10.60;;;;;;;18.28;63.55;99443.96;239079;180;153099;-64
2024/04/07 08:01:31;;;;;;;12.80;7.60;;;;;;;18.41;63.24;99441.47;239054;180;137912;-65
2024/04/07 08:06:35;;;;;;;15.50;8.70;;;;;;;18.56;62.81;99442.00;239107;176;138139;-63
2024/04/07 08:11:38;;;;;;;12.60;6.60;;;;;;;18.69;62.56;99433.65;239115;180;153762;-63
2024/04/07 08:16:41;;;;;;;7.50;4.90;;;;;;;18.87;62.41;99436.17;239083;180;137981;-63
2024/04/07 08:21:44;;;;;;;6.10;3.90;;;;;;;19.02;62.33;99436.42;239130;180;140560;-63
2024/04/07 08:26:47;;;;;;;21.20;15.30;;;;;;;19.17;61.84;99441.72;239044;180;153408;-62
2024/04/07 08:31:50;;;;;;;65.20;54.90;;;;;;;19.36;61.60;99445.98;239028;180;139183;-57
2024/04/07 08:36:53;;;;;;;93.60;68.60;;;;;;;19.60;61.87;99441.77;239084;180;138992;-70
2024/04/07 08:42:00;;;;;;;8.80;4.70;;;;;;;19.79;60.31;99432.63;238891;180;153405;-66
2024/04/07 08:47:05;;;;;;;12.40;7.60;;;;;;;20.01;59.37;99433.73;239008;180;138136;-52
2024/04/07 08:52:09;;;;;;;5.70;3.60;;;;;;;20.22;59.10;99429.06;239110;180;139486;-66
2024/04/07 08:57:13;;;;;;;9.30;4.60;;;;;;;20.40;57.99;99422.65;239037;177;153243;-61
2024/04/07 09:02:18;;;;;;;11.50;5.10;;;;;;;20.58;57.96;99413.39;238966;180;139385;-61
2024/04/07 09:07:24;;;;;;;8.10;3.70;;;;;;;20.73;57.70;99409.86;238995;176;138755;-61
2024/04/07 09:12:30;;;;;;;8.80;3.60;;;;;;;20.87;56.53;99403.13;238955;180;154086;-61
2024/04/07 09:17:34;;;;;;;6.70;3.90;;;;;;;21.05;56.28;99407.98;239023;180;138091;-61
2024/04/07 09:22:37;;;;;;;7.50;3.50;;;;;;;21.25;55.56;99407.06;239122;180;138189;-50
2024/04/07 09:27:41;;;;;;;9.10;4.00;;;;;;;21.39;54.99;99398.77;239072;180;153191;-50
2024/04/07 09:32:44;;;;;;;5.90;3.60;;;;;;;21.51;55.37;99388.98;239021;180;138156;-47
2024/04/07 09:37:47;;;;;;;20.50;15.80;;;;;;;21.60;55.52;99387.64;239025;180;139134;-51
2024/04/07 09:42:54;;;;;;;20.40;14.90;;;;;;;21.72;54.87;99389.30;239112;180;153760;-48
2024/04/07 09:48:02;;;;;;;7.80;4.50;;;;;;;21.92;54.74;99383.95;239061;180;138097;-53
2024/04/07 09:53:12;;;;;;;6.90;4.40;;;;;;;22.12;54.00;99379.41;239071;180;138008;-46
2024/04/07 09:58:16;;;;;;;7.30;3.50;;;;;;;22.26;53.98;99370.52;239162;180;153124;-47
2024/04/07 10:03:19;;;;;;;7.50;4.40;;;;;;;22.44;53.46;99359.59;239075;180;137976;-51
2024/04/07 10:08:22;;;;;;;27.10;15.10;;;;;;;22.68;53.30;99351.42;239073;179;137728;-49
2024/04/07 10:13:25;;;;;;;10.20;4.60;;;;;;;22.94;52.78;99340.15;239008;180;153190;-51
2024/04/07 10:18:29;;;;;;;9.00;4.30;;;;;;;23.17;52.47;99332.10;238987;179;137310;-49
2024/04/07 10:23:36;;;;;;;6.70;4.00;;;;;;;23.28;51.97;99334.89;238988;180;138120;-48
2024/04/07 10:28:46;;;;;;;6.30;3.60;;;;;;;23.41;51.25;99335.52;238960;180;153072;-51
2024/04/07 10:33:50;;;;;;;5.00;2.00;;;;;;;23.59;50.29;99332.38;239012;179;137349;-49
2024/04/07 10:38:58;;;;;;;5.90;2.10;;;;;;;23.81;49.35;99322.11;238981;180;138716;-48
2024/04/07 10:44:02;;;;;;;6.70;3.30;;;;;;;23.97;48.51;99316.73;238967;180;153079;-50
2024/04/07 10:49:07;;;;;;;4.60;2.40;;;;;;;24.07;48.60;99313.24;238870;180;139750;-48
2024/04/07 10:54:10;;;;;;;3.80;2.00;;;;;;;24.15;47.84;99317.20;238931;180;137527;-49
2024/04/07 10:59:13;;;;;;;5.10;2.80;;;;;;;24.18;47.88;99311.69;239009;180;153927;-71
2024/04/07 11:04:16;;;;;;;105.10;86.60;;;;;;;24.31;48.41;99302.14;238984;180;137699;-51
2024/04/07 11:09:20;;;;;;;5.50;3.80;;;;;;;24.59;48.02;99292.73;239084;179;137880;-48
2024/04/07 11:14:25;;;;;;;3.70;2.00;;;;;;;24.78;46.83;99287.04;239032;180;153227;-49
2024/04/07 11:19:28;;;;;;;5.40;2.10;;;;;;;24.96;46.30;99287.08;238993;180;137623;-51
2024/04/07 11:24:31;;;;;;;7.10;1.80;;;;;;;25.12;45.62;99283.61;239014;168;138525;-51
2024/04/07 11:29:35;;;;;;;4.10;2.00;;;;;;;25.08;45.02;99277.20;239032;180;154040;-55
2024/04/07 11:34:38;;;;;;;9.40;7.30;;;;;;;24.96;45.04;99279.20;238944;180;137171;-54
2024/04/07 11:39:43;;;;;;;2.60;1.90;;;;;;;24.87;44.63;99282.25;239078;180;141228;-54
2024/04/07 11:44:57;;;;;;;4.30;2.20;;;;;;;24.90;44.35;99282.58;238986;180;154892;-54
2024/04/07 11:50:00;;;;;;;3.20;2.00;;;;;;;25.04;44.96;99285.09;238977;180;137387;-55
2024/04/07 11:55:04;;;;;;;3.10;1.70;;;;;;;25.24;44.68;99283.29;239046;180;137626;-54
2024/04/07 12:00:08;;;;;;;6.20;2.90;;;;;;;25.48;44.17;99275.46;239177;180;153966;-54
2024/04/07 12:05:15;;;;;;;71.70;64.20;;;;;;;25.75;43.63;99270.44;238958;180;141412;-62
2024/04/07 12:10:18;;;;;;;4.80;4.10;;;;;;;25.98;42.78;99263.41;239095;180;138482;-49
2024/04/07 12:15:21;;;;;;;4.30;1.60;;;;;;;26.09;42.28;99263.00;238962;180;153214;-60
2024/04/07 12:20:24;;;;;;;5.40;1.60;;;;;;;26.23;41.75;99259.04;238966;180;137822;-59
2024/04/07 12:25:27;;;;;;;2.40;1.30;;;;;;;26.33;40.84;99256.30;238955;173;136947;-60
2024/04/07 12:30:30;;;;;;;3.30;2.30;;;;;;;26.30;40.67;99251.77;238907;180;153450;-62
2024/04/07 12:35:33;;;;;;;6.10;4.00;;;;;;;26.30;40.64;99244.88;238971;180;138637;-62
2024/04/07 12:40:36;;;;;;;3.70;1.50;;;;;;;26.29;40.36;99237.23;239014;180;137632;-62
2024/04/07 12:45:39;;;;;;;3.70;1.40;;;;;;;26.20;39.84;99236.86;238996;180;153571;-61
2024/04/07 12:50:42;;;;;;;5.00;2.00;;;;;;;26.15;39.38;99237.52;238979;180;137459;-62
2024/04/07 12:55:45;;;;;;;8.70;2.70;;;;;;;26.12;40.11;99229.29;238933;180;138010;-62
2024/04/07 13:00:48;;;;;;;8.80;3.90;;;;;;;26.15;40.72;99226.40;238950;178;153988;-62
2024/04/07 13:05:52;;;;;;;5.70;3.00;;;;;;;26.25;41.44;99227.48;238983;180;137747;-63
2024/04/07 13:10:56;;;;;;;20.20;6.80;;;;;;;26.51;41.49;99220.63;238981;180;139517;-63
2024/04/07 13:15:59;;;;;;;206.80;156.90;;;;;;;26.76;41.36;99201.78;238879;179;154177;-60
2024/04/07 13:21:02;;;;;;;25.80;16.60;;;;;;;27.02;41.12;99193.39;239001;180;137678;-62
2024/04/07 13:26:05;;;;;;;14.90;6.50;;;;;;;27.18;40.94;99191.92;238953;180;162298;-62
2024/04/07 13:31:08;;;;;;;7.30;3.10;;;;;;;27.25;40.36;99182.42;238904;180;155450;-62
2024/04/07 13:36:11;;;;;;;3.30;1.70;;;;;;;27.17;39.96;99182.70;238983;176;137646;-59
2024/04/07 13:41:14;;;;;;;3.40;1.80;;;;;;;27.12;39.57;99182.95;238989;180;138117;-62
2024/04/07 13:46:17;;;;;;;8.00;1.80;;;;;;;27.24;39.56;99180.57;238993;168;153036;-61
2024/04/07 13:51:20;;;;;;;3.30;1.60;;;;;;;27.43;39.06;99173.30;238975;173;138109;-64
2024/04/07 13:56:23;;;;;;;3.20;1.90;;;;;;;27.56;38.82;99170.48;238942;180;137522;-63
2024/04/07 14:01:26;;;;;;;3.60;1.50;;;;;;;27.69;38.39;99171.98;238973;180;153243;-64
2024/04/07 14:06:30;;;;;;;5.70;1.60;;;;;;;27.64;38.47;99167.20;238991;180;138146;-65
2024/04/07 14:11:33;;;;;;;3.30;1.40;;;;;;;27.42;38.23;99170.44;238985;180;137709;-64
2024/04/07 14:16:42;;;;;;;109.30;98.40;;;;;;;27.26;38.54;99172.09;238946;180;153198;-62
2024/04/07 14:21:45;;;;;;;8.40;7.00;;;;;;;27.04;38.74;99168.58;238904;180;137926;-63
2024/04/07 14:26:48;;;;;;;4.00;1.80;;;;;;;26.77;39.15;99168.42;239037;180;137158;-63
2024/04/07 14:31:51;;;;;;;3.60;1.40;;;;;;;26.55;39.50;99168.81;239065;180;154873;-63
2024/04/07 14:36:54;;;;;;;5.10;3.60;;;;;;;26.39;39.74;99169.78;239001;180;138235;-62
2024/04/07 14:41:57;;;;;;;5.70;2.80;;;;;;;26.23;40.06;99166.30;239006;180;137759;-61
2024/04/07 14:47:00;;;;;;;2.40;1.70;;;;;;;26.09;40.30;99162.78;238991;180;154795;-61
2024/04/07 14:52:04;;;;;;;10.50;7.30;;;;;;;25.91;40.60;99159.80;239013;180;137142;-61
2024/04/07 14:57:07;;;;;;;23.70;17.80;;;;;;;25.82;40.68;99157.04;239081;180;137882;-63
2024/04/07 15:02:09;;;;;;;6.50;4.70;;;;;;;25.84;40.60;99157.19;238895;180;153042;-60
2024/04/07 15:07:13;;;;;;;4.90;3.00;;;;;;;25.72;41.00;99155.39;239026;180;138454;-60
2024/04/07 15:12:16;;;;;;;3.20;1.50;;;;;;;25.54;41.47;99154.69;239024;180;138095;-59
2024/04/07 15:17:19;;;;;;;2.40;1.30;;;;;;;25.40;41.78;99154.73;239053;180;154875;-60
2024/04/07 15:22:22;;;;;;;4.30;1.80;;;;;;;25.31;41.95;99155.09;238784;180;137339;-60
2024/04/07 15:27:25;;;;;;;7.10;4.70;;;;;;;25.21;42.01;99157.38;238965;180;137801;-60
2024/04/07 15:32:28;;;;;;;7.50;4.70;;;;;;;25.10;42.41;99155.67;239021;180;153199;-60
2024/04/07 15:37:31;;;;;;;4.30;2.50;;;;;;;24.99;42.52;99155.96;239064;177;138020;-59
2024/04/07 15:42:34;;;;;;;4.40;2.60;;;;;;;24.96;42.81;99150.20;238980;180;139036;-60
2024/04/07 15:47:37;;;;;;;79.40;66.20;;;;;;;24.92;43.10;99150.60;239087;180;155126;-60
2024/04/07 15:52:42;;;;;;;6.70;3.80;;;;;;;24.88;43.45;99160.52;239009;180;137823;-58
2024/04/07 15:57:45;;;;;;;8.70;5.80;;;;;;;24.83;43.38;99155.31;239003;180;137872;-59
2024/04/07 16:02:48;;;;;;;9.90;6.60;;;;;;;24.80;43.45;99144.71;239038;176;155272;-60
2024/04/07 16:07:51;;;;;;;9.40;5.70;;;;;;;24.78;43.60;99142.08;239005;180;138260;-58
2024/04/07 16:12:54;;;;;;;4.60;2.20;;;;;;;24.80;43.64;99141.96;239015;177;138682;-57
2024/04/07 16:17:57;;;;;;;30.40;27.10;;;;;;;24.92;43.48;99144.03;239028;176;153134;-58
2024/04/07 16:23:00;;;;;;;7.20;5.80;;;;;;;25.33;42.89;99143.98;238983;180;138070;-60
2024/04/07 16:28:03;;;;;;;4.90;1.80;;;;;;;25.39;42.32;99140.91;239110;180;137365;-58
2024/04/07 16:33:06;;;;;;;3.10;1.30;;;;;;;25.20;42.01;99142.27;239091;180;155064;-61
2024/04/07 16:38:10;;;;;;;4.40;1.10;;;;;;;25.06;41.71;99144.16;239005;180;137587;-60
2024/04/07 16:43:13;;;;;;;149.90;128.90;;;;;;;24.91;42.15;99142.34;239015;180;137285;-55
2024/04/07 16:48:16;;;;;;;13.00;10.60;;;;;;;24.76;42.48;99140.63;238982;180;155105;-55
2024/04/07 16:53:19;;;;;;;8.20;4.60;;;;;;;24.57;42.38;99139.47;238963;180;141012;-56
2024/04/07 16:58:22;;;;;;;3.30;2.70;;;;;;;24.42;42.64;99143.07;239025;180;138815;-56
2024/04/07 17:03:25;;;;;;;2.90;2.00;;;;;;;24.29;42.69;99141.18;239020;180;152930;-55
2024/04/07 17:08:28;;;;;;;6.80;2.30;;;;;;;24.15;43.33;99140.96;238947;180;138676;-63
2024/04/07 17:13:34;;;;;;;6.80;2.10;;;;;;;24.01;43.67;99142.58;239006;180;137167;-63
2024/04/07 17:18:37;;;;;;;3.80;2.30;;;;;;;23.83;44.19;99140.36;238866;180;155718;-57
2024/04/07 17:23:40;;;;;;;3.90;1.90;;;;;;;23.69;44.37;99142.86;238978;180;138366;-57
2024/04/07 17:28:44;;;;;;;2.90;2.10;;;;;;;23.55;44.56;99145.48;238980;180;138073;-58
2024/04/07 17:33:47;;;;;;;5.70;2.10;;;;;;;23.42;44.74;99151.77;239036;176;153144;-63
2024/04/07 17:38:51;;;;;;;4.30;2.10;;;;;;;23.29;44.88;99154.63;238981;180;139018;-62
2024/04/07 17:43:54;;;;;;;10.20;4.30;;;;;;;23.19;45.43;99163.08;238986;177;136866;-63
2024/04/07 17:48:57;;;;;;;96.70;86.40;;;;;;;23.07;46.36;99162.52;238942;180;153866;-51
2024/04/07 17:54:00;;;;;;;21.90;14.10;;;;;;;23.02;47.32;99165.11;238996;180;137882;-55
2024/04/07 17:59:03;;;;;;;9.10;3.80;;;;;;;22.85;47.82;99164.58;238900;180;137890;-57
2024/04/07 18:04:06;;;;;;;12.40;2.50;;;;;;;22.67;48.16;99171.58;238964;180;153251;-57
2024/04/07 18:09:10;;;;;;;8.20;2.60;;;;;;;22.51;48.15;99176.39;238958;180;138450;-57
2024/04/07 18:14:12;;;;;;;7.70;2.20;;;;;;;22.38;48.33;99173.48;238774;176;138607;-58
2024/04/07 18:19:15;;;;;;;8.30;2.70;;;;;;;22.23;48.77;99177.02;238976;180;154007;-57
2024/04/07 18:24:18;;;;;;;11.10;2.90;;;;;;;22.10;48.75;99182.21;239070;180;137964;-55
2024/04/07 18:29:22;;;;;;;7.70;2.70;;;;;;;21.95;48.73;99181.27;238999;176;138237;-58
2024/04/07 18:34:25;;;;;;;12.10;3.60;;;;;;;21.82;49.34;99173.85;238796;180;153754;-56
2024/04/07 18:39:28;;;;;;;10.40;3.40;;;;;;;21.68;50.33;99174.08;238944;180;137862;-56
2024/04/07 18:44:33;;;;;;;262.00;211.70;;;;;;;21.54;51.33;99176.48;239035;180;137738;-59
2024/04/07 18:49:36;;;;;;;16.10;8.70;;;;;;;21.47;51.42;99175.87;239018;176;153045;-55
2024/04/07 18:54:39;;;;;;;13.40;4.20;;;;;;;21.38;51.51;99175.13;238902;180;137846;-55
2024/04/07 18:59:42;;;;;;;8.80;3.60;;;;;;;21.23;51.83;99176.11;238883;180;140733;-57
2024/04/07 19:04:47;;;;;;;11.50;3.10;;;;;;;21.11;52.29;99172.81;238911;173;153238;-57
2024/04/07 19:09:50;;;;;;;8.00;3.50;;;;;;;20.96;52.75;99168.89;238935;180;137575;-56
2024/04/07 19:14:55;;;;;;;18.80;3.80;;;;;;;20.83;52.96;99167.42;238981;180;137409;-56
2024/04/07 19:19:58;;;;;;;20.00;4.10;;;;;;;20.71;53.52;99167.76;238987;180;153233;-56
2024/04/07 19:25:01;;;;;;;10.80;3.40;;;;;;;20.59;53.72;99162.80;238764;180;141319;-57
2024/04/07 19:30:05;;;;;;;8.50;3.40;;;;;;;20.50;53.75;99163.02;238917;180;139145;-56
2024/04/07 19:35:09;;;;;;;7.80;3.40;;;;;;;20.43;53.98;99158.11;238930;180;153091;-57
2024/04/07 19:40:11;;;;;;;13.50;3.70;;;;;;;20.34;54.35;99151.45;238876;177;138199;-56
2024/04/07 19:45:15;;;;;;;7.30;3.10;;;;;;;20.24;54.73;99153.52;239032;180;137236;-54
2024/04/07 19:50:18;;;;;;;8.80;3.30;;;;;;;20.16;55.10;99158.70;239035;180;155756;-56
2024/04/07 19:55:21;;;;;;;12.40;3.80;;;;;;;20.02;55.83;99162.70;238982;176;137773;-56
2024/04/07 20:00:24;;;;;;;6.40;3.20;;;;;;;19.91;56.11;99171.84;239017;180;138152;-57
2024/04/07 20:05:29;;;;;;;8.70;4.00;;;;;;;19.81;56.37;99168.93;238960;180;154639;-56
2024/04/07 20:10:33;;;;;;;7.60;3.50;;;;;;;19.72;56.36;99170.27;239002;180;137751;-56
2024/04/07 20:15:36;;;;;;;10.90;3.60;;;;;;;19.63;56.80;99176.89;239024;180;138138;-55
2024/04/07 20:20:39;;;;;;;9.60;3.30;;;;;;;19.55;57.20;99177.98;239028;180;153118;-54
2024/04/07 20:25:42;;;;;;;9.20;3.80;;;;;;;19.48;57.55;99184.24;239002;180;137886;-55
2024/04/07 20:30:45;;;;;;;9.30;4.90;;;;;;;19.39;57.98;99181.13;239018;180;137206;-56
2024/04/07 20:35:48;;;;;;;6.70;3.90;;;;;;;19.29;58.45;99180.27;238966;180;153241;-56
2024/04/07 20:40:51;;;;;;;8.70;4.20;;;;;;;19.18;59.25;99186.95;239005;180;137669;-56
2024/04/07 20:45:54;;;;;;;10.50;4.10;;;;;;;19.05;59.52;99182.55;239073;180;138265;-55
2024/04/07 20:50:57;;;;;;;18.60;5.50;;;;;;;18.97;59.83;99178.55;238930;178;153275;-54
2024/04/07 20:56:00;;;;;;;10.20;4.60;;;;;;;18.87;59.97;99178.34;238978;180;137310;-56
2024/04/07 21:01:04;;;;;;;8.30;4.10;;;;;;;18.80;60.23;99184.05;238979;180;138692;-55
2024/04/07 21:06:07;;;;;;;17.40;4.50;;;;;;;18.76;60.53;99183.17;238916;180;155453;-56
2024/04/07 21:11:11;;;;;;;15.70;5.60;;;;;;;18.67;61.26;99183.98;239010;180;138600;-56
2024/04/07 21:16:14;;;;;;;11.30;4.70;;;;;;;18.57;61.56;99186.67;239000;176;141168;-56
2024/04/07 21:21:17;;;;;;;16.80;5.50;;;;;;;18.48;61.83;99195.13;239035;180;153096;-56
2024/04/07 21:26:20;;;;;;;12.40;5.60;;;;;;;18.35;61.96;99195.27;239014;180;138298;-56
2024/04/07 21:31:23;;;;;;;16.30;5.50;;;;;;;18.24;62.24;99198.38;239064;176;137186;-56
2024/04/07 21:36:26;;;;;;;16.70;5.50;;;;;;;18.17;62.48;99203.14;239012;180;154461;-55
2024/04/07 21:41:29;;;;;;;9.60;4.60;;;;;;;18.05;62.88;99207.65;238985;180;137040;-55
2024/04/07 21:46:32;;;;;;;9.20;4.80;;;;;;;17.96;63.03;99205.95;239055;180;137514;-53
2024/04/07 21:51:35;;;;;;;12.70;5.10;;;;;;;17.94;63.18;99210.40;238968;180;153571;-56
2024/04/07 21:56:38;;;;;;;14.90;5.90;;;;;;;17.91;63.33;99208.18;239000;180;137786;-56
2024/04/07 22:01:44;;;;;;;17.20;5.40;;;;;;;17.90;63.59;99203.64;239074;180;139248;-56
2024/04/07 22:06:47;;;;;;;10.10;5.40;;;;;;;17.83;63.77;99202.11;238876;180;154809;-55
2024/04/07 22:11:52;;;;;;;13.80;5.00;;;;;;;17.74;64.17;99206.31;238861;180;138035;-56
2024/04/07 22:16:55;;;;;;;12.80;5.40;;;;;;;17.66;64.55;99203.61;238964;180;138121;-55
2024/04/07 22:21:58;;;;;;;14.50;5.20;;;;;;;17.55;64.80;99209.38;238980;180;153057;-55
2024/04/07 22:27:01;;;;;;;11.70;5.00;;;;;;;17.46;65.07;99206.45;239040;180;137469;-56
2024/04/07 22:32:04;;;;;;;10.70;5.10;;;;;;;17.37;65.24;99206.52;238673;180;138143;-55
2024/04/07 22:37:07;;;;;;;15.50;5.80;;;;;;;17.27;65.71;99206.11;238856;180;154334;-55
2024/04/07 22:42:11;;;;;;;14.70;5.30;;;;;;;17.17;66.00;99205.23;238892;180;137683;-54
2024/04/07 22:47:15;;;;;;;14.00;5.40;;;;;;;17.10;66.29;99205.02;238938;174;137388;-55
2024/04/07 22:52:18;;;;;;;11.10;4.50;;;;;;;17.04;66.50;99210.26;238947;180;153991;-55
2024/04/07 22:57:21;;;;;;;10.50;4.60;;;;;;;17.02;67.01;99203.20;238790;180;142254;-53
2024/04/07 23:02:24;;;;;;;10.00;4.70;;;;;;;17.04;67.26;99205.05;238771;180;138637;-55
2024/04/07 23:07:27;;;;;;;8.50;4.90;;;;;;;17.04;67.29;99204.36;238946;180;153205;-55
2024/04/07 23:12:30;;;;;;;8.30;4.40;;;;;;;17.01;67.29;99199.37;238782;180;138113;-56
2024/04/07 23:17:33;;;;;;;10.80;4.70;;;;;;;16.98;67.29;99199.81;238946;180;137438;-57